Time;durP1;ratioP1;P1;durP2;ratioP2;P2;SDS_P1;SDS_P2;PMS_P1;PMS_P2;Temp;Humidity;BMP_temperature;BMP_pressure;BME280_temperature;BME280_humidity;BME280_pressure;Samples;Min_cycle;Max_cycle;Signal;HPM_P1;HPM_P2
2020/12/06 08:38:17;;;;;;;43.73;20.43;;;3.70;99.90;;;;;;3492310;41;20379;-85
2020/12/06 08:48:01;;;;;;;33.47;16.30;;;3.80;99.90;;;;;;3489037;41;20837;-85
2020/12/06 08:50:33;;;;;;;40.57;18.47;;;3.80;99.90;;;;;;3486376;33;20368;-85
2020/12/06 08:52:58;;;;;;;39.87;18.87;;;3.70;99.90;;;;;;3489538;33;20801;-84
2020/12/06 08:55:42;;;;;;;37.67;16.80;;;3.70;99.90;;;;;;3489559;41;20377;-85
2020/12/06 08:58:33;;;;;;;44.50;19.30;;;3.80;99.90;;;;;;3495396;33;20436;-84
2020/12/06 09:01:25;;;;;;;55.33;22.10;;;3.80;99.90;;;;;;3489093;41;20998;-86
2020/12/06 09:04:16;;;;;;;45.20;19.80;;;3.90;99.90;;;;;;3484758;40;20422;-86
2020/12/06 13:40:53;;;;;;;8.23;6.77;;;4.90;99.90;;;;;;628432;31;20675;-89
2020/12/06 13:43:47;;;;;;;9.90;7.77;;;4.80;99.90;;;;;;3494432;41;20389;-89
2020/12/06 13:46:48;;;;;;;8.57;7.23;;;4.80;99.90;;;;;;3496892;32;20357;-87
2020/12/06 13:49:17;;;;;;;9.63;8.63;;;4.80;99.90;;;;;;3492228;33;20350;-89
2020/12/06 13:51:52;;;;;;;9.53;7.57;;;4.80;99.90;;;;;;3497443;33;20369;-87
2020/12/06 13:54:52;;;;;;;8.13;7.40;;;4.90;99.90;;;;;;3495550;33;20752;-88
2020/12/06 13:57:22;;;;;;;9.43;8.43;;;4.80;99.90;;;;;;3497445;40;20377;-88
2020/12/06 13:59:52;;;;;;;8.43;7.63;;;4.90;99.90;;;;;;3500625;40;20391;-89
2020/12/06 14:02:18;;;;;;;9.20;8.23;;;4.90;99.90;;;;;;3500464;33;20381;-89
2020/12/06 14:04:45;;;;;;;9.60;8.60;;;4.90;99.90;;;;;;3494616;40;20446;-88
2020/12/06 14:07:13;;;;;;;10.83;9.73;;;4.90;99.90;;;;;;3496359;33;20333;-90
2020/12/06 14:09:47;;;;;;;10.47;9.37;;;4.90;99.90;;;;;;3504131;33;20358;-90
2020/12/06 14:12:12;;;;;;;9.67;8.60;;;4.90;99.90;;;;;;3496013;33;20341;-90
2020/12/06 14:14:38;;;;;;;12.30;9.60;;;4.90;99.90;;;;;;3498627;40;20577;-89
2020/12/06 14:17:04;;;;;;;9.97;8.87;;;4.90;99.90;;;;;;3500834;41;20448;-90
2020/12/06 14:19:30;;;;;;;9.60;7.53;;;4.90;99.90;;;;;;3501814;41;20502;-89
2020/12/06 14:22:02;;;;;;;9.83;8.87;;;5.00;99.90;;;;;;3500776;41;20262;-91
2020/12/06 14:24:28;;;;;;;13.17;11.60;;;4.90;99.90;;;;;;3510620;33;20276;-89
2020/12/06 14:26:54;;;;;;;13.20;11.90;;;4.90;99.90;;;;;;3501227;33;20753;-91
2020/12/06 14:29:45;;;;;;;15.10;13.17;;;5.00;99.90;;;;;;3502939;40;20343;-89
2020/12/06 14:32:13;;;;;;;16.17;11.47;;;5.00;99.90;;;;;;3510075;33;20669;-90
2020/12/06 14:34:48;;;;;;;13.77;11.70;;;5.00;99.90;;;;;;3499181;41;20345;-89
2020/12/06 14:37:17;;;;;;;12.63;10.03;;;4.90;99.90;;;;;;3498176;33;20655;-88
2020/12/06 14:39:42;;;;;;;9.40;8.40;;;5.00;99.90;;;;;;3503382;33;20321;-90
2020/12/06 14:46:00;;;;;;;17.60;13.70;;;4.90;99.90;;;;;;3514836;33;20854;-91
2020/12/06 14:59:09;;;;;;;13.00;11.70;;;4.80;99.90;;;;;;3509234;33;20785;-93
2020/12/06 15:02:02;;;;;;;12.47;11.27;;;4.80;99.90;;;;;;3511855;33;20686;-89
2020/12/06 15:05:03;;;;;;;;;;;;;;;;;;;;;
2020/12/06 15:10:31;;;;;;;19.83;15.10;;;4.80;99.90;;;;;;3502080;40;20743;-89
2020/12/06 15:13:01;;;;;;;12.67;11.37;;;4.80;99.90;;;;;;3504622;40;20812;-90
2020/12/06 15:15:26;;;;;;;32.00;28.80;;;4.80;99.90;;;;;;3495438;33;20408;-88
2020/12/06 15:18:13;;;;;;;21.00;17.50;;;4.70;99.90;;;;;;3498566;41;20345;-89
2020/12/06 15:25:45;;;;;;;12.43;11.23;;;4.80;99.90;;;;;;3501619;40;20912;-90
2020/12/06 15:40:44;;;;;;;18.10;12.80;;;4.80;99.90;;;;;;3508166;33;20360;-87
2020/12/06 15:47:08;;;;;;;;;;;;;;;;;;;;;
2020/12/06 15:49:44;;;;;;;11.80;10.23;;;4.70;99.90;;;;;;3498923;33;20365;-89
2020/12/06 15:52:12;;;;;;;11.47;10.30;;;4.70;99.90;;;;;;3498038;40;20724;-91
2020/12/06 15:54:49;;;;;;;12.00;10.80;;;4.70;99.90;;;;;;3497747;40;20526;-89
2020/12/06 15:57:19;;;;;;;11.17;9.93;;;4.70;99.90;;;;;;3494950;33;20661;-91
2020/12/06 15:59:45;;;;;;;11.70;10.50;;;4.70;99.90;;;;;;3498982;33;20723;-90
2020/12/06 16:02:10;;;;;;;11.10;10.00;;;4.70;99.90;;;;;;3495242;40;20458;-89
2020/12/06 16:04:52;;;;;;;12.20;11.00;;;4.60;99.90;;;;;;3494759;40;20273;-90
2020/12/06 16:07:18;;;;;;;12.73;11.43;;;4.60;99.90;;;;;;3493559;41;20246;-89
2020/12/06 16:09:48;;;;;;;12.20;10.63;;;4.50;99.90;;;;;;3498343;40;20450;-90
2020/12/06 16:12:46;;;;;;;13.00;11.70;;;4.60;99.90;;;;;;3496377;40;20250;-90
2020/12/06 16:15:48;;;;;;;12.77;10.60;;;4.70;99.90;;;;;;3501240;40;20747;-89
2020/12/06 16:18:48;;;;;;;15.80;13.97;;;4.70;99.90;;;;;;3526070;33;20353;-93
2020/12/06 16:21:45;;;;;;;13.87;12.17;;;4.70;99.90;;;;;;3499821;33;20369;-91
2020/12/06 16:24:44;;;;;;;13.07;11.73;;;4.80;99.90;;;;;;3498123;33;20385;-90
2020/12/06 16:27:10;;;;;;;16.73;14.80;;;4.70;99.90;;;;;;3492239;40;20359;-87
2020/12/06 16:30:10;;;;;;;19.03;16.70;;;4.70;99.90;;;;;;3509108;40;20381;-92
2020/12/06 16:32:54;;;;;;;17.37;13.60;;;4.80;99.90;;;;;;3511266;33;20277;-92
2020/12/06 16:35:20;;;;;;;14.47;13.00;;;4.70;99.90;;;;;;3506892;33;20440;-89
2020/12/06 16:37:46;;;;;;;14.47;12.97;;;4.70;99.90;;;;;;3499596;40;20841;-90
2020/12/06 16:40:44;;;;;;;15.63;14.13;;;4.70;99.90;;;;;;3503699;33;20378;-91
2020/12/06 16:46:51;;;;;;;17.50;13.17;;;4.60;99.90;;;;;;3503493;33;20735;-89
2020/12/06 16:49:27;;;;;;;17.77;13.53;;;4.60;99.90;;;;;;3494490;40;20371;-90
2020/12/06 16:51:52;;;;;;;16.20;14.50;;;4.60;99.90;;;;;;3496432;40;20365;-88
2020/12/06 16:54:18;;;;;;;16.53;14.83;;;4.60;99.90;;;;;;3497881;33;20541;-89
2020/12/06 16:56:44;;;;;;;18.10;14.50;;;4.60;99.90;;;;;;3506897;40;20288;-89
2020/12/06 16:59:10;;;;;;;15.13;13.53;;;4.60;99.90;;;;;;3505981;40;20269;-89
2020/12/06 17:01:36;;;;;;;16.07;14.37;;;4.70;99.90;;;;;;3495001;40;20265;-89
2020/12/06 17:04:02;;;;;;;16.73;14.77;;;4.70;99.90;;;;;;3489255;33;20704;-89
2020/12/06 17:06:46;;;;;;;21.40;15.60;;;4.70;99.90;;;;;;3492266;40;20378;-88
2020/12/06 17:09:12;;;;;;;21.30;17.70;;;4.60;99.90;;;;;;3494146;33;20249;-88
2020/12/06 17:11:38;;;;;;;22.80;19.47;;;4.60;99.90;;;;;;3496529;40;20453;-88
2020/12/06 17:14:03;;;;;;;23.60;18.67;;;4.60;99.90;;;;;;3497095;40;20696;-88
2020/12/06 17:16:29;;;;;;;22.73;17.87;;;4.60;99.90;;;;;;3497098;40;20705;-88
2020/12/06 17:18:55;;;;;;;16.60;14.60;;;4.70;99.90;;;;;;3497993;33;20385;-88
2020/12/06 17:21:21;;;;;;;19.00;17.00;;;4.60;99.90;;;;;;3497346;40;20363;-88
2020/12/06 17:23:47;;;;;;;16.73;15.00;;;4.60;99.90;;;;;;3499005;33;20242;-88
2020/12/06 17:26:17;;;;;;;15.43;13.93;;;4.60;99.90;;;;;;3492772;40;20377;-88
2020/12/06 17:28:44;;;;;;;14.20;12.80;;;4.60;99.90;;;;;;3496037;40;20292;-86
2020/12/06 17:31:09;;;;;;;10.47;9.47;;;4.60;99.90;;;;;;3496664;41;20818;-87
2020/12/06 17:33:35;;;;;;;10.43;9.40;;;4.50;99.90;;;;;;3502497;33;20521;-87
2020/12/06 17:36:01;;;;;;;9.37;8.30;;;4.60;99.90;;;;;;3495305;40;20795;-88
2020/12/06 17:38:26;;;;;;;9.40;7.10;;;4.50;99.90;;;;;;3496899;40;20283;-86
2020/12/06 17:40:52;;;;;;;7.60;6.80;;;4.50;99.90;;;;;;3499402;33;21181;-86
2020/12/06 17:43:18;;;;;;;14.10;7.67;;;4.60;99.90;;;;;;3491921;40;20262;-88
2020/12/06 17:45:47;;;;;;;4.50;4.10;;;4.50;99.90;;;;;;3495438;40;20275;-87
2020/12/06 17:48:14;;;;;;;6.80;6.10;;;4.50;99.90;;;;;;3498460;33;20435;-86
2020/12/06 17:50:40;;;;;;;7.43;6.20;;;4.40;99.90;;;;;;3493354;40;20437;-85
2020/12/06 17:53:05;;;;;;;5.57;4.50;;;4.40;99.90;;;;;;3496730;40;20366;-87
2020/12/06 17:55:33;;;;;;;6.27;5.10;;;4.40;99.90;;;;;;3492134;40;20253;-87
2020/12/06 17:57:59;;;;;;;6.90;5.70;;;4.30;99.90;;;;;;3493355;41;20289;-88
2020/12/06 18:00:25;;;;;;;8.47;4.93;;;4.30;99.90;;;;;;3492778;41;20677;-88
2020/12/06 18:02:51;;;;;;;5.03;4.53;;;4.30;99.90;;;;;;3503212;40;20386;-87
2020/12/06 18:05:25;;;;;;;5.53;4.83;;;4.30;99.90;;;;;;3492300;40;20375;-87
2020/12/06 18:07:51;;;;;;;6.90;5.17;;;4.40;99.90;;;;;;3502825;33;20276;-85
2020/12/06 18:10:16;;;;;;;7.80;6.20;;;4.30;99.90;;;;;;3494574;41;20386;-87
2020/12/06 18:12:42;;;;;;;5.60;5.10;;;4.30;99.90;;;;;;3492087;40;20288;-89
2020/12/06 18:15:08;;;;;;;6.80;6.10;;;4.20;99.90;;;;;;3495082;40;20356;-91
2020/12/06 18:17:34;;;;;;;6.63;5.93;;;4.20;99.90;;;;;;3492259;40;20250;-88
2020/12/06 18:20:00;;;;;;;7.97;7.23;;;4.20;99.90;;;;;;3496511;40;20364;-86
2020/12/06 18:22:31;;;;;;;9.37;8.47;;;4.20;99.90;;;;;;3499538;40;20604;-87
2020/12/06 18:24:57;;;;;;;8.70;7.80;;;4.20;99.90;;;;;;3495203;41;20356;-86
2020/12/06 18:27:23;;;;;;;7.47;6.70;;;4.20;99.90;;;;;;3499023;40;20390;-84
2020/12/06 18:29:49;;;;;;;9.07;8.10;;;4.20;99.90;;;;;;3497626;40;20281;-85
2020/12/06 18:32:15;;;;;;;19.53;17.43;;;4.20;99.90;;;;;;3495410;33;20296;-86
2020/12/06 18:34:41;;;;;;;12.47;10.00;;;4.30;99.90;;;;;;3494190;40;20386;-84
2020/12/06 18:37:07;;;;;;;16.43;12.97;;;4.30;99.90;;;;;;3496189;40;20301;-83
2020/12/06 18:39:32;;;;;;;123.67;97.00;;;4.30;99.90;;;;;;3506354;40;20995;-84
2020/12/06 18:41:59;;;;;;;51.53;40.40;;;4.40;99.90;;;;;;3496543;40;20584;-84
2020/12/06 18:44:25;;;;;;;24.90;20.53;;;4.40;99.90;;;;;;3492119;41;20606;-84
2020/12/06 18:47:16;;;;;;;46.67;33.57;;;4.40;99.90;;;;;;3495885;40;20409;-88
2020/12/06 18:50:19;;;;;;;17.77;12.83;;;4.40;99.90;;;;;;3496546;41;20257;-88
2020/12/06 18:53:00;;;;;;;18.63;14.97;;;4.40;99.90;;;;;;3520506;33;20348;-88
2020/12/06 18:56:49;;;;;;;;;;;;;;;;;;;;;
2020/12/06 18:59:21;;;;;;;8.63;7.30;;;4.30;99.90;;;;;;3479969;41;20350;-90
2020/12/06 19:01:55;;;;;;;10.67;9.23;;;4.20;99.90;;;;;;3515754;33;20871;-89
2020/12/06 19:04:24;;;;;;;10.67;9.30;;;4.10;99.90;;;;;;3502205;40;20383;-87
2020/12/06 19:06:54;;;;;;;9.70;8.70;;;4.00;99.90;;;;;;3500620;40;20358;-87
2020/12/06 19:09:20;;;;;;;10.00;8.20;;;4.00;99.90;;;;;;3494779;33;20370;-86
2020/12/06 19:11:46;;;;;;;9.50;8.50;;;4.10;99.90;;;;;;3504128;40;20467;-86
2020/12/06 19:14:12;;;;;;;12.00;8.80;;;4.10;99.90;;;;;;3495027;33;20258;-87
2020/12/06 19:16:38;;;;;;;8.50;7.57;;;4.10;99.90;;;;;;3493035;40;20364;-85
2020/12/06 19:19:03;;;;;;;9.80;8.80;;;4.00;99.90;;;;;;3497562;40;20286;-87
2020/12/06 19:21:29;;;;;;;10.20;8.93;;;3.90;99.90;;;;;;3499328;40;20569;-87
2020/12/06 19:24:22;;;;;;;9.97;8.70;;;3.90;99.90;;;;;;3493254;40;20282;-90
2020/12/06 19:27:01;;;;;;;10.13;8.23;;;3.80;99.90;;;;;;3498544;33;20266;-88
2020/12/06 19:29:36;;;;;;;8.10;7.30;;;3.70;99.90;;;;;;3510778;32;20350;-90
2020/12/06 19:32:03;;;;;;;10.60;7.77;;;3.60;99.90;;;;;;3496936;41;20940;-88
2020/12/06 19:34:30;;;;;;;11.60;8.40;;;3.60;99.90;;;;;;3500390;33;20692;-89
2020/12/06 19:36:56;;;;;;;10.20;8.30;;;3.50;99.90;;;;;;3500758;33;20364;-90
2020/12/06 19:39:30;;;;;;;15.43;6.60;;;3.40;99.90;;;;;;3499825;33;20407;-87
2020/12/06 19:42:13;;;;;;;11.20;8.30;;;3.40;99.90;;;;;;3500698;33;20391;-88
2020/12/06 19:44:44;;;;;;;9.60;8.70;;;3.30;99.90;;;;;;3504139;40;20736;-88
2020/12/06 20:05:28;;;;;;;9.70;8.70;;;2.90;99.90;;;;;;3512902;27;20393;-88
2020/12/06 20:07:55;;;;;;;9.50;8.07;;;2.90;99.90;;;;;;3479117;33;20442;-84
2020/12/06 20:10:20;;;;;;;9.17;7.93;;;3.00;99.90;;;;;;3480794;41;20459;-86
2020/12/06 20:12:46;;;;;;;9.27;8.37;;;3.00;99.90;;;;;;3482788;41;20343;-86
2020/12/06 20:15:13;;;;;;;9.20;8.27;;;2.90;99.90;;;;;;3478653;41;20406;-85
2020/12/06 20:17:38;;;;;;;9.57;8.47;;;2.80;99.90;;;;;;3478451;41;20258;-87
2020/12/06 20:20:05;;;;;;;11.23;9.00;;;2.60;99.90;;;;;;3481850;41;20465;-86
2020/12/06 20:22:32;;;;;;;11.33;9.37;;;2.60;99.90;;;;;;3484088;41;20290;-85
2020/12/06 20:24:58;;;;;;;8.60;7.80;;;2.60;99.90;;;;;;3483802;33;20384;-87
2020/12/06 20:27:24;;;;;;;10.40;9.40;;;2.50;99.90;;;;;;3481453;41;20356;-85
2020/12/06 20:29:50;;;;;;;9.63;8.67;;;2.40;99.90;;;;;;3482968;41;20273;-84
2020/12/06 20:32:17;;;;;;;10.13;9.10;;;2.40;99.90;;;;;;3485490;33;20293;-87
2020/12/06 20:34:43;;;;;;;12.57;10.07;;;2.30;99.90;;;;;;3482230;33;20767;-86
2020/12/06 20:37:10;;;;;;;10.50;9.40;;;2.20;99.90;;;;;;3483074;33;20392;-87
2020/12/06 20:39:36;;;;;;;11.10;9.57;;;2.30;99.90;;;;;;3480105;41;20362;-86
2020/12/06 20:42:02;;;;;;;11.97;10.20;;;2.20;99.90;;;;;;3488419;40;20732;-87
2020/12/06 20:44:28;;;;;;;11.93;10.73;;;2.20;99.90;;;;;;3486467;41;20671;-84
2020/12/06 20:46:53;;;;;;;13.77;10.50;;;2.20;99.90;;;;;;3481057;41;20276;-84
2020/12/06 20:49:20;;;;;;;16.80;10.70;;;2.20;99.90;;;;;;3481074;33;20302;-84
2020/12/06 20:51:46;;;;;;;14.30;12.37;;;2.00;99.90;;;;;;3481543;41;20274;-84
2020/12/06 20:54:15;;;;;;;13.67;11.57;;;2.00;99.90;;;;;;3480277;41;20350;-85
2020/12/06 20:56:45;;;;;;;19.43;14.57;;;1.90;99.90;;;;;;3482930;41;20467;-86
2020/12/06 20:59:10;;;;;;;14.67;11.77;;;2.10;99.90;;;;;;3492408;41;20350;-84
2020/12/06 21:01:36;;;;;;;13.47;11.60;;;2.10;99.90;;;;;;3484540;41;20749;-85
2020/12/06 21:04:02;;;;;;;14.70;12.27;;;2.10;99.90;;;;;;3481010;41;20311;-86
2020/12/06 21:06:28;;;;;;;14.60;12.10;;;1.90;99.90;;;;;;3480168;41;20262;-86
2020/12/06 21:08:54;;;;;;;14.53;11.40;;;1.90;99.90;;;;;;3485876;33;20971;-86
2020/12/06 21:11:31;;;;;;;17.67;12.80;;;1.90;99.90;;;;;;3482960;41;20346;-85
2020/12/06 21:13:57;;;;;;;15.00;12.27;;;1.80;99.90;;;;;;3482902;41;20483;-84
2020/12/06 21:16:23;;;;;;;14.27;11.10;;;1.80;99.90;;;;;;3480894;41;20913;-84
2020/12/06 21:18:54;;;;;;;13.43;10.83;;;1.90;99.90;;;;;;3484897;41;20407;-86
2020/12/06 21:21:25;;;;;;;12.90;10.90;;;1.80;99.90;;;;;;3482624;41;20351;-88
2020/12/06 21:23:54;;;;;;;14.30;10.60;;;1.90;99.90;;;;;;3482006;33;20849;-88
2020/12/06 21:26:20;;;;;;;17.17;12.00;;;1.80;99.90;;;;;;3483116;41;20397;-85
2020/12/06 21:28:46;;;;;;;16.83;11.60;;;1.80;99.90;;;;;;3482579;41;20271;-86
2020/12/06 21:31:13;;;;;;;17.60;11.73;;;1.80;99.90;;;;;;3481527;33;20250;-88
2020/12/06 21:33:39;;;;;;;17.60;13.50;;;1.80;99.90;;;;;;3488485;33;20385;-88
2020/12/06 21:36:28;;;;;;;20.80;13.27;;;1.80;99.90;;;;;;3484194;41;20394;-90
2020/12/06 21:39:01;;;;;;;13.00;11.23;;;1.80;99.90;;;;;;3489199;41;20402;-89
2020/12/06 21:41:27;;;;;;;11.90;9.80;;;1.90;99.90;;;;;;3485974;41;20358;-88
2020/12/06 21:43:53;;;;;;;11.90;10.53;;;2.00;99.90;;;;;;3487613;41;20417;-86
2020/12/06 21:46:22;;;;;;;11.47;9.10;;;2.00;99.90;;;;;;3484744;41;20270;-86
2020/12/06 21:48:49;;;;;;;10.97;8.40;;;1.90;99.90;;;;;;3492085;41;20274;-87
2020/12/06 21:51:15;;;;;;;10.00;8.03;;;2.00;99.90;;;;;;3487038;33;20466;-89
2020/12/06 21:53:40;;;;;;;10.60;9.50;;;2.00;99.90;;;;;;3491636;41;20386;-87
2020/12/06 21:56:06;;;;;;;10.43;8.50;;;2.00;99.90;;;;;;3487011;41;20963;-87
2020/12/06 21:58:32;;;;;;;11.40;8.90;;;1.90;99.90;;;;;;3486976;41;20246;-87
2020/12/06 22:01:25;;;;;;;8.93;8.03;;;1.90;99.90;;;;;;3486087;41;20362;-93
2020/12/06 22:09:01;;;;;;;10.60;8.40;;;1.80;99.90;;;;;;3654947;33;20425;-86
2020/12/06 22:11:27;;;;;;;8.90;8.00;;;1.80;99.90;;;;;;3493648;40;20389;-86
2020/12/06 22:14:04;;;;;;;10.90;8.50;;;1.80;99.90;;;;;;3497678;41;20257;-89
2020/12/06 22:16:30;;;;;;;9.60;7.63;;;1.80;99.90;;;;;;3491845;40;20264;-86
2020/12/06 22:18:59;;;;;;;9.40;7.90;;;1.80;99.90;;;;;;3496440;33;20361;-88
2020/12/06 22:21:26;;;;;;;9.50;7.97;;;1.70;99.90;;;;;;3496364;40;20345;-85
2020/12/06 22:23:58;;;;;;;9.87;8.43;;;1.80;99.90;;;;;;3492675;41;20373;-86
2020/12/06 22:26:24;;;;;;;10.10;8.97;;;1.70;99.90;;;;;;3497415;33;20810;-85
2020/12/06 22:28:52;;;;;;;10.90;9.43;;;1.80;99.90;;;;;;3493408;41;20385;-86
2020/12/06 22:31:18;;;;;;;10.17;8.63;;;1.70;99.90;;;;;;3493106;33;20262;-86
2020/12/06 22:33:44;;;;;;;10.80;8.97;;;1.80;99.90;;;;;;3493303;41;20372;-86
2020/12/06 22:36:12;;;;;;;10.40;8.30;;;1.80;99.90;;;;;;3490879;41;20764;-86
2020/12/06 22:38:38;;;;;;;9.87;8.30;;;1.80;99.90;;;;;;3497926;33;20341;-84
2020/12/06 22:41:04;;;;;;;12.27;9.23;;;1.70;99.90;;;;;;3495186;33;20376;-86
2020/12/06 22:43:29;;;;;;;11.30;8.63;;;1.70;99.90;;;;;;3495554;41;20397;-86
2020/12/06 22:45:55;;;;;;;8.87;7.67;;;1.70;99.90;;;;;;3487570;41;20294;-85
2020/12/06 22:48:21;;;;;;;9.70;8.20;;;1.80;99.90;;;;;;3492321;41;20264;-85
2020/12/06 22:50:46;;;;;;;10.30;7.57;;;1.70;99.90;;;;;;3494249;40;20369;-85
2020/12/06 22:53:18;;;;;;;7.70;6.60;;;1.80;99.90;;;;;;3502165;40;20815;-87
2020/12/06 22:55:43;;;;;;;8.03;7.20;;;1.70;99.90;;;;;;3492194;41;20688;-86
2020/12/06 22:58:09;;;;;;;11.90;6.90;;;1.80;99.90;;;;;;3493794;41;20390;-85
2020/12/06 23:00:35;;;;;;;9.37;7.40;;;1.70;99.90;;;;;;3489760;41;20293;-85
2020/12/06 23:03:00;;;;;;;9.67;7.67;;;1.70;99.90;;;;;;3491879;41;20254;-87
2020/12/06 23:05:26;;;;;;;8.87;7.73;;;1.70;99.90;;;;;;3490592;41;20356;-86
2020/12/06 23:07:53;;;;;;;8.30;7.40;;;1.70;99.90;;;;;;3492664;41;20625;-84
2020/12/06 23:10:18;;;;;;;9.10;8.13;;;1.70;99.90;;;;;;3493056;33;20249;-84
2020/12/06 23:12:44;;;;;;;8.13;7.07;;;1.80;99.90;;;;;;3493853;41;20361;-85
2020/12/06 23:15:09;;;;;;;8.17;7.40;;;1.80;99.90;;;;;;3493185;41;20374;-84
2020/12/06 23:17:35;;;;;;;10.20;6.97;;;1.80;99.90;;;;;;3493214;41;20402;-84
2020/12/06 23:20:01;;;;;;;7.17;6.47;;;1.80;99.90;;;;;;3495376;41;20280;-85
2020/12/06 23:22:26;;;;;;;6.80;6.00;;;1.80;99.90;;;;;;3495913;41;20258;-84
2020/12/06 23:24:52;;;;;;;8.63;6.37;;;1.90;99.90;;;;;;3491974;41;20260;-85
2020/12/06 23:27:17;;;;;;;7.33;6.23;;;1.90;99.90;;;;;;3493182;40;20312;-84
2020/12/06 23:29:43;;;;;;;6.93;6.23;;;1.90;99.90;;;;;;3493559;40;20850;-85
2020/12/06 23:32:09;;;;;;;7.20;6.27;;;1.90;99.90;;;;;;3494288;41;20740;-84
2020/12/06 23:34:35;;;;;;;6.43;5.83;;;2.00;99.90;;;;;;3492222;41;20616;-85
2020/12/06 23:37:02;;;;;;;7.43;6.23;;;1.90;99.90;;;;;;3492976;41;20359;-84
2020/12/06 23:39:28;;;;;;;8.90;6.90;;;1.90;99.90;;;;;;3484014;40;20372;-84
2020/12/06 23:41:54;;;;;;;7.00;6.23;;;1.90;99.90;;;;;;3492521;40;20360;-85
2020/12/06 23:44:20;;;;;;;7.97;6.70;;;1.90;99.90;;;;;;3497121;41;20402;-85
2020/12/06 23:46:45;;;;;;;7.73;6.70;;;1.80;99.90;;;;;;3494584;41;20411;-85
2020/12/06 23:49:11;;;;;;;7.23;6.50;;;1.80;99.90;;;;;;3492223;41;20992;-85
2020/12/06 23:51:37;;;;;;;7.90;6.60;;;1.70;99.90;;;;;;3491319;40;20292;-84
2020/12/06 23:54:04;;;;;;;6.70;5.93;;;1.70;99.90;;;;;;3495553;41;20262;-85
2020/12/06 23:56:39;;;;;;;8.07;6.30;;;1.80;99.90;;;;;;3492817;41;20238;-84
2020/12/06 23:59:04;;;;;;;9.13;6.17;;;1.70;99.90;;;;;;3494128;41;20786;-84
